sensor_id;sensor_type;location;lat;lon;timestamp;pressure;altitude;pressure_sealevel;temperature;humidity
19624;BME280;9959;49.798;9.928;2023-02-18T00:01:35;100341.34;;;10.33;100.00
19624;BME280;9959;49.798;9.928;2023-02-18T00:04:02;100344.91;;;10.40;100.00
19624;BME280;9959;49.798;9.928;2023-02-18T00:06:34;100342.00;;;10.35;100.00
19624;BME280;9959;49.798;9.928;2023-02-18T00:09:02;100334.09;;;10.34;100.00
19624;BME280;9959;49.798;9.928;2023-02-18T00:11:32;100345.34;;;10.37;100.00
19624;BME280;9959;49.798;9.928;2023-02-18T00:14:02;100347.38;;;10.35;100.00
19624;BME280;9959;49.798;9.928;2023-02-18T00:16:29;100339.03;;;10.30;100.00
19624;BME280;9959;49.798;9.928;2023-02-18T00:19:02;100342.75;;;10.29;100.00
19624;BME280;9959;49.798;9.928;2023-02-18T00:21:31;100340.34;;;10.34;100.00
19624;BME280;9959;49.798;9.928;2023-02-18T00:23:58;100345.34;;;10.37;100.00
19624;BME280;9959;49.798;9.928;2023-02-18T00:26:26;100334.00;;;10.48;100.00
19624;BME280;9959;49.798;9.928;2023-02-18T00:28:56;100325.28;;;10.46;100.00
19624;BME280;9959;49.798;9.928;2023-02-18T00:31:25;100322.59;;;10.46;100.00
19624;BME280;9959;49.798;9.928;2023-02-18T00:33:52;100324.72;;;10.51;100.00
19624;BME280;9959;49.798;9.928;2023-02-18T00:36:21;100323.69;;;10.52;100.00
19624;BME280;9959;49.798;9.928;2023-02-18T00:38:51;100320.81;;;10.54;100.00
19624;BME280;9959;49.798;9.928;2023-02-18T00:41:19;100325.41;;;10.60;100.00
19624;BME280;9959;49.798;9.928;2023-02-18T00:43:49;100310.09;;;10.60;100.00
19624;BME280;9959;49.798;9.928;2023-02-18T00:48:47;100310.66;;;10.56;100.00
19624;BME280;9959;49.798;9.928;2023-02-18T00:51:14;100312.81;;;10.67;100.00
19624;BME280;9959;49.798;9.928;2023-02-18T00:53:41;100313.22;;;10.64;100.00
19624;BME280;9959;49.798;9.928;2023-02-18T00:56:08;100315.34;;;10.75;100.00
19624;BME280;9959;49.798;9.928;2023-02-18T00:58:39;100325.25;;;10.68;100.00
19624;BME280;9959;49.798;9.928;2023-02-18T01:01:07;100320.69;;;10.68;100.00
19624;BME280;9959;49.798;9.928;2023-02-18T01:03:35;100331.84;;;10.59;100.00
19624;BME280;9959;49.798;9.928;2023-02-18T01:06:03;100335.03;;;10.47;100.00
19624;BME280;9959;49.798;9.928;2023-02-18T01:08:32;100334.16;;;10.40;100.00
19624;BME280;9959;49.798;9.928;2023-02-18T01:10:59;100339.63;;;10.26;100.00
19624;BME280;9959;49.798;9.928;2023-02-18T01:13:27;100340.53;;;10.18;100.00
19624;BME280;9959;49.798;9.928;2023-02-18T01:15:57;100349.00;;;10.15;100.00
19624;BME280;9959;49.798;9.928;2023-02-18T01:18:25;100347.09;;;10.09;100.00
19624;BME280;9959;49.798;9.928;2023-02-18T01:20:52;100343.75;;;10.07;100.00
19624;BME280;9959;49.798;9.928;2023-02-18T01:23:19;100342.09;;;10.06;100.00
19624;BME280;9959;49.798;9.928;2023-02-18T01:25:46;100334.97;;;9.98;100.00
19624;BME280;9959;49.798;9.928;2023-02-18T01:28:13;100349.25;;;9.99;100.00
19624;BME280;9959;49.798;9.928;2023-02-18T01:30:41;100342.97;;;9.92;100.00
19624;BME280;9959;49.798;9.928;2023-02-18T01:33:08;100347.31;;;9.93;100.00
19624;BME280;9959;49.798;9.928;2023-02-18T01:35:38;100337.97;;;9.89;100.00
19624;BME280;9959;49.798;9.928;2023-02-18T01:38:06;100343.94;;;9.84;100.00
19624;BME280;9959;49.798;9.928;2023-02-18T01:40:33;100343.97;;;9.91;100.00
19624;BME280;9959;49.798;9.928;2023-02-18T01:43:00;100341.44;;;9.82;100.00
19624;BME280;9959;49.798;9.928;2023-02-18T01:48:10;100329.22;;;9.87;100.00
19624;BME280;9959;49.798;9.928;2023-02-18T01:51:05;100326.31;;;9.81;100.00
19624;BME280;9959;49.798;9.928;2023-02-18T01:53:52;100327.31;;;9.80;100.00
19624;BME280;9959;49.798;9.928;2023-02-18T01:56:35;100325.72;;;9.86;100.00
19624;BME280;9959;49.798;9.928;2023-02-18T01:59:12;100325.28;;;9.82;100.00
19624;BME280;9959;49.798;9.928;2023-02-18T02:01:41;100324.00;;;9.78;100.00
19624;BME280;9959;49.798;9.928;2023-02-18T02:04:09;100321.03;;;9.73;100.00
19624;BME280;9959;49.798;9.928;2023-02-18T02:06:36;100318.16;;;9.75;100.00
19624;BME280;9959;49.798;9.928;2023-02-18T02:09:06;100318.53;;;9.72;100.00
19624;BME280;9959;49.798;9.928;2023-02-18T02:12:02;100315.91;;;9.78;100.00
19624;BME280;9959;49.798;9.928;2023-02-18T02:17:40;100306.19;;;9.77;100.00
19624;BME280;9959;49.798;9.928;2023-02-18T02:45:45;100278.63;;;9.97;100.00
19624;BME280;9959;49.798;9.928;2023-02-18T02:53:23;100285.38;;;10.07;100.00
19624;BME280;9959;49.798;9.928;2023-02-18T02:55:52;100283.50;;;10.08;100.00
19624;BME280;9959;49.798;9.928;2023-02-18T02:58:29;100278.97;;;10.08;100.00
19624;BME280;9959;49.798;9.928;2023-02-18T03:04:04;100279.91;;;10.01;100.00
19624;BME280;9959;49.798;9.928;2023-02-18T03:09:59;100271.25;;;10.05;100.00
19624;BME280;9959;49.798;9.928;2023-02-18T03:12:37;100266.66;;;9.99;100.00
19624;BME280;9959;49.798;9.928;2023-02-18T03:20:50;100278.50;;;10.05;100.00
19624;BME280;9959;49.798;9.928;2023-02-18T03:23:28;100281.59;;;10.02;100.00
19624;BME280;9959;49.798;9.928;2023-02-18T03:25:58;100279.91;;;10.01;100.00
19624;BME280;9959;49.798;9.928;2023-02-18T03:28:27;100285.38;;;10.07;100.00
19624;BME280;9959;49.798;9.928;2023-02-18T03:31:06;100278.63;;;9.97;100.00
19624;BME280;9959;49.798;9.928;2023-02-18T03:33:40;100280.03;;;9.93;100.00
19624;BME280;9959;49.798;9.928;2023-02-18T03:36:08;100273.13;;;9.83;100.00
19624;BME280;9959;49.798;9.928;2023-02-18T03:38:44;100280.09;;;9.78;100.00
19624;BME280;9959;49.798;9.928;2023-02-18T03:41:14;100276.84;;;9.82;100.00
19624;BME280;9959;49.798;9.928;2023-02-18T03:43:49;100274.78;;;9.84;100.00
19624;BME280;9959;49.798;9.928;2023-02-18T03:46:16;100276.84;;;9.82;100.00
19624;BME280;9959;49.798;9.928;2023-02-18T03:48:53;100277.41;;;9.78;100.00
19624;BME280;9959;49.798;9.928;2023-02-18T03:51:20;100281.59;;;9.80;100.00
19624;BME280;9959;49.798;9.928;2023-02-18T03:53:50;100279.66;;;9.74;100.00
19624;BME280;9959;49.798;9.928;2023-02-18T03:56:20;100277.16;;;9.73;100.00
19624;BME280;9959;49.798;9.928;2023-02-18T03:58:47;100263.13;;;9.77;100.00
19624;BME280;9959;49.798;9.928;2023-02-18T04:01:13;100269.34;;;9.78;100.00
19624;BME280;9959;49.798;9.928;2023-02-18T04:03:40;100277.88;;;9.81;100.00
19624;BME280;9959;49.798;9.928;2023-02-18T04:06:07;100279.13;;;9.85;100.00
19624;BME280;9959;49.798;9.928;2023-02-18T04:08:34;100281.19;;;9.83;100.00
19624;BME280;9959;49.798;9.928;2023-02-18T04:11:01;100280.19;;;9.84;100.00
19624;BME280;9959;49.798;9.928;2023-02-18T04:13:28;100277.59;;;9.76;100.00
19624;BME280;9959;49.798;9.928;2023-02-18T04:15:55;100276.56;;;9.77;100.00
19624;BME280;9959;49.798;9.928;2023-02-18T04:18:22;100275.19;;;9.81;100.00
19624;BME280;9959;49.798;9.928;2023-02-18T04:20:49;100273.50;;;9.80;100.00
19624;BME280;9959;49.798;9.928;2023-02-18T04:23:17;100273.63;;;9.72;100.00
19624;BME280;9959;49.798;9.928;2023-02-18T04:25:43;100269.66;;;9.68;100.00
19624;BME280;9959;49.798;9.928;2023-02-18T04:28:12;100276.63;;;9.63;100.00
19624;BME280;9959;49.798;9.928;2023-02-18T04:30:40;100279.31;;;9.63;100.00
19624;BME280;9959;49.798;9.928;2023-02-18T04:33:06;100279.94;;;9.65;100.00
19624;BME280;9959;49.798;9.928;2023-02-18T04:35:33;100278.94;;;9.66;100.00
19624;BME280;9959;49.798;9.928;2023-02-18T04:38:02;100279.13;;;9.64;100.00
19624;BME280;9959;49.798;9.928;2023-02-18T04:40:29;100271.22;;;9.63;100.00
19624;BME280;9959;49.798;9.928;2023-02-18T04:42:57;100277.06;;;9.66;100.00
19624;BME280;9959;49.798;9.928;2023-02-18T04:45:25;100278.38;;;9.70;100.00
19624;BME280;9959;49.798;9.928;2023-02-18T04:47:53;100277.16;;;9.73;100.00
19624;BME280;9959;49.798;9.928;2023-02-18T04:50:22;100276.31;;;9.72;100.00
19624;BME280;9959;49.798;9.928;2023-02-18T04:52:50;100268.25;;;9.72;100.00
19624;BME280;9959;49.798;9.928;2023-02-18T04:55:16;100272.78;;;9.72;100.00
19624;BME280;9959;49.798;9.928;2023-02-18T04:57:43;100270.94;;;9.72;100.00
19624;BME280;9959;49.798;9.928;2023-02-18T05:00:14;100271.97;;;9.71;100.00
19624;BME280;9959;49.798;9.928;2023-02-18T05:02:43;100282.16;;;9.76;100.00
19624;BME280;9959;49.798;9.928;2023-02-18T05:05:10;100270.09;;;9.72;100.00
19624;BME280;9959;49.798;9.928;2023-02-18T05:07:37;100272.59;;;9.73;100.00
19624;BME280;9959;49.798;9.928;2023-02-18T05:10:05;100269.72;;;9.75;100.00
19624;BME280;9959;49.798;9.928;2023-02-18T05:12:35;100267.22;;;9.73;100.00
19624;BME280;9959;49.798;9.928;2023-02-18T05:15:03;100267.59;;;9.70;100.00
19624;BME280;9959;49.798;9.928;2023-02-18T05:17:30;100266.31;;;9.66;100.00
19624;BME280;9959;49.798;9.928;2023-02-18T05:19:57;100260.94;;;9.66;100.00
19624;BME280;9959;49.798;9.928;2023-02-18T05:22:24;100260.56;;;9.69;100.00
19624;BME280;9959;49.798;9.928;2023-02-18T05:24:51;100254.25;;;9.62;100.00
19624;BME280;9959;49.798;9.928;2023-02-18T05:27:18;100248.13;;;9.68;100.00
19624;BME280;9959;49.798;9.928;2023-02-18T05:29:45;100248.88;;;9.62;100.00
19624;BME280;9959;49.798;9.928;2023-02-18T05:32:12;100252.22;;;9.64;100.00
19624;BME280;9959;49.798;9.928;2023-02-18T05:34:39;100253.25;;;9.63;100.00
19624;BME280;9959;49.798;9.928;2023-02-18T05:37:06;100247.66;;;9.65;100.00
19624;BME280;9959;49.798;9.928;2023-02-18T05:39:32;100248.38;;;9.73;100.00
19624;BME280;9959;49.798;9.928;2023-02-18T05:41:59;100249.03;;;9.75;100.00
19624;BME280;9959;49.798;9.928;2023-02-18T05:44:26;100241.97;;;9.74;100.00
19624;BME280;9959;49.798;9.928;2023-02-18T05:47:03;100240.31;;;9.73;100.00
19624;BME280;9959;49.798;9.928;2023-02-18T05:49:32;100240.78;;;9.77;100.00
19624;BME280;9959;49.798;9.928;2023-02-18T05:52:00;100255.97;;;9.84;100.00
19624;BME280;9959;49.798;9.928;2023-02-18T05:54:27;100239.59;;;9.86;100.00
19624;BME280;9959;49.798;9.928;2023-02-18T05:56:54;100237.53;;;9.88;100.00
19624;BME280;9959;49.798;9.928;2023-02-18T05:59:24;100216.22;;;9.87;100.00
19624;BME280;9959;49.798;9.928;2023-02-18T06:01:53;100240.38;;;9.80;100.00
19624;BME280;9959;49.798;9.928;2023-02-18T06:04:23;100220.06;;;9.77;100.00
19624;BME280;9959;49.798;9.928;2023-02-18T06:06:51;100221.84;;;9.70;100.00
19624;BME280;9959;49.798;9.928;2023-02-18T06:09:18;100224.94;;;9.67;100.00
19624;BME280;9959;49.798;9.928;2023-02-18T06:11:48;100229.75;;;9.72;100.00
19624;BME280;9959;49.798;9.928;2023-02-18T06:16:52;100236.59;;;9.74;100.00
19624;BME280;9959;49.798;9.928;2023-02-18T06:19:18;100238.28;;;9.75;100.00
19624;BME280;9959;49.798;9.928;2023-02-18T06:21:45;100236.97;;;9.71;100.00
19624;BME280;9959;49.798;9.928;2023-02-18T06:24:13;100239.28;;;9.74;100.00
19624;BME280;9959;49.798;9.928;2023-02-18T06:26:39;100235.31;;;9.70;100.00
19624;BME280;9959;49.798;9.928;2023-02-18T06:29:08;100225.84;;;9.74;100.00
19624;BME280;9959;49.798;9.928;2023-02-18T06:31:35;100234.16;;;9.79;100.00
19624;BME280;9959;49.798;9.928;2023-02-18T06:34:05;100231.66;;;9.78;100.00
19624;BME280;9959;49.798;9.928;2023-02-18T06:36:32;100234.16;;;9.79;100.00
19624;BME280;9959;49.798;9.928;2023-02-18T06:39:02;100225.84;;;9.74;100.00
19624;BME280;9959;49.798;9.928;2023-02-18T06:41:32;100208.47;;;9.77;100.00
19624;BME280;9959;49.798;9.928;2023-02-18T06:43:59;100217.38;;;9.77;100.00
19624;BME280;9959;49.798;9.928;2023-02-18T06:46:26;100207.00;;;9.74;100.00
19624;BME280;9959;49.798;9.928;2023-02-18T06:48:53;100203.94;;;9.77;100.00
19624;BME280;9959;49.798;9.928;2023-02-18T06:51:20;100198.19;;;9.87;100.00
19624;BME280;9959;49.798;9.928;2023-02-18T06:53:47;100204.84;;;9.84;100.00
19624;BME280;9959;49.798;9.928;2023-02-18T06:56:20;100194.94;;;9.92;100.00
19624;BME280;9959;49.798;9.928;2023-02-18T06:58:47;100178.00;;;9.98;100.00
19624;BME280;9959;49.798;9.928;2023-02-18T07:01:14;100183.00;;;10.01;100.00
19624;BME280;9959;49.798;9.928;2023-02-18T07:03:43;100180.97;;;10.03;100.00
19624;BME280;9959;49.798;9.928;2023-02-18T07:06:10;100194.28;;;10.11;100.00
19624;BME280;9959;49.798;9.928;2023-02-18T07:08:37;100191.34;;;10.06;100.00
19624;BME280;9959;49.798;9.928;2023-02-18T07:11:06;100181.44;;;10.13;99.21
19624;BME280;9959;49.798;9.928;2023-02-18T07:13:32;100177.31;;;10.17;99.01
19624;BME280;9959;49.798;9.928;2023-02-18T07:16:03;100186.81;;;10.13;99.52
19624;BME280;9959;49.798;9.928;2023-02-18T07:18:30;100192.19;;;10.34;93.21
19624;BME280;9959;49.798;9.928;2023-02-18T07:20:57;100196.75;;;10.34;92.36
19624;BME280;9959;49.798;9.928;2023-02-18T07:23:24;100192.84;;;10.36;92.74
19624;BME280;9959;49.798;9.928;2023-02-18T07:25:51;100186.44;;;10.37;90.88
19624;BME280;9959;49.798;9.928;2023-02-18T07:28:18;100186.63;;;10.42;89.61
19624;BME280;9959;49.798;9.928;2023-02-18T07:30:44;100195.00;;;10.54;87.59
19624;BME280;9959;49.798;9.928;2023-02-18T07:33:11;100188.00;;;10.60;87.04
19624;BME280;9959;49.798;9.928;2023-02-18T07:35:39;100191.69;;;10.52;87.54
19624;BME280;9959;49.798;9.928;2023-02-18T07:38:06;100183.84;;;10.57;87.49
19624;BME280;9959;49.798;9.928;2023-02-18T07:40:34;100177.38;;;10.51;87.00
19624;BME280;9959;49.798;9.928;2023-02-18T07:43:01;100171.84;;;10.60;86.21
19624;BME280;9959;49.798;9.928;2023-02-18T07:45:28;100173.50;;;10.61;85.81
19624;BME280;9959;49.798;9.928;2023-02-18T07:47:55;100177.66;;;10.63;84.76
19624;BME280;9959;49.798;9.928;2023-02-18T07:50:22;100166.88;;;10.63;84.46
19624;BME280;9959;49.798;9.928;2023-02-18T07:52:48;100168.97;;;10.68;84.51
19624;BME280;9959;49.798;9.928;2023-02-18T07:55:17;100163.56;;;10.68;83.81
19624;BME280;9959;49.798;9.928;2023-02-18T07:57:44;100168.41;;;10.79;83.16
19624;BME280;9959;49.798;9.928;2023-02-18T08:00:24;100166.34;;;10.81;82.64
19624;BME280;9959;49.798;9.928;2023-02-18T08:02:51;100167.38;;;10.80;83.62
19624;BME280;9959;49.798;9.928;2023-02-18T08:05:18;100170.28;;;10.78;83.24
19624;BME280;9959;49.798;9.928;2023-02-18T08:07:45;100170.22;;;10.72;83.44
19624;BME280;9959;49.798;9.928;2023-02-18T08:10:14;100160.72;;;10.76;84.47
19624;BME280;9959;49.798;9.928;2023-02-18T08:12:41;100162.81;;;10.80;83.86
19624;BME280;9959;49.798;9.928;2023-02-18T08:15:08;100158.09;;;10.89;84.05
19624;BME280;9959;49.798;9.928;2023-02-18T08:17:35;100157.50;;;10.94;85.26
19624;BME280;9959;49.798;9.928;2023-02-18T08:20:02;100157.69;;;10.99;84.37
19624;BME280;9959;49.798;9.928;2023-02-18T08:22:28;100150.47;;;11.06;83.95
19624;BME280;9959;49.798;9.928;2023-02-18T08:24:55;100159.00;;;11.23;84.17
19624;BME280;9959;49.798;9.928;2023-02-18T08:27:23;100152.19;;;11.27;84.62
19624;BME280;9959;49.798;9.928;2023-02-18T08:29:50;100145.53;;;11.29;84.39
19624;BME280;9959;49.798;9.928;2023-02-18T08:32:17;100147.22;;;11.30;83.91
19624;BME280;9959;49.798;9.928;2023-02-18T08:34:43;100130.59;;;11.27;83.77
19624;BME280;9959;49.798;9.928;2023-02-18T08:37:10;100121.69;;;11.26;84.53
19624;BME280;9959;49.798;9.928;2023-02-18T08:39:38;100112.78;;;11.32;83.32
19624;BME280;9959;49.798;9.928;2023-02-18T08:42:05;100108.22;;;11.33;82.65
19624;BME280;9959;49.798;9.928;2023-02-18T08:44:33;100103.66;;;11.40;81.35
19624;BME280;9959;49.798;9.928;2023-02-18T08:47:00;100107.81;;;11.36;80.84
19624;BME280;9959;49.798;9.928;2023-02-18T08:49:27;100097.41;;;11.33;80.70
19624;BME280;9959;49.798;9.928;2023-02-18T08:51:54;100099.09;;;11.34;81.09
19624;BME280;9959;49.798;9.928;2023-02-18T08:54:21;100103.66;;;11.40;80.24
19624;BME280;9959;49.798;9.928;2023-02-18T08:56:48;100103.44;;;11.35;80.50
19624;BME280;9959;49.798;9.928;2023-02-18T09:01:43;100107.59;;;11.37;80.84
19624;BME280;9959;49.798;9.928;2023-02-18T09:04:10;100111.34;;;11.43;80.96
19624;BME280;9959;49.798;9.928;2023-02-18T09:06:37;100118.19;;;11.39;81.64
19624;BME280;9959;49.798;9.928;2023-02-18T09:09:06;100116.72;;;11.30;82.39
19624;BME280;9959;49.798;9.928;2023-02-18T09:11:33;100126.66;;;11.23;82.93
19624;BME280;9959;49.798;9.928;2023-02-18T09:14:00;100129.59;;;11.34;83.18
19624;BME280;9959;49.798;9.928;2023-02-18T09:16:27;100117.56;;;11.57;81.98
19624;BME280;9959;49.798;9.928;2023-02-18T09:18:55;100123.38;;;11.40;82.66
19624;BME280;9959;49.798;9.928;2023-02-18T09:21:25;100122.78;;;11.45;82.62
19624;BME280;9959;49.798;9.928;2023-02-18T09:23:52;100131.06;;;11.50;82.40
19624;BME280;9959;49.798;9.928;2023-02-18T09:26:20;100135.19;;;11.33;83.39
19624;BME280;9959;49.798;9.928;2023-02-18T09:28:49;100125.25;;;11.40;82.25
19624;BME280;9959;49.798;9.928;2023-02-18T09:31:19;100124.00;;;11.49;82.32
19624;BME280;9959;49.798;9.928;2023-02-18T09:33:51;100118.41;;;11.64;81.38
19624;BME280;9959;49.798;9.928;2023-02-18T09:36:19;100112.38;;;11.62;80.80
19624;BME280;9959;49.798;9.928;2023-02-18T09:38:47;100120.31;;;11.90;80.14
19624;BME280;9959;49.798;9.928;2023-02-18T09:43:48;100111.38;;;11.82;76.93
19624;BME280;9959;49.798;9.928;2023-02-18T09:46:27;100123.22;;;11.95;76.37
19624;BME280;9959;49.798;9.928;2023-02-18T09:48:59;100118.00;;;12.06;75.77
19624;BME280;9959;49.798;9.928;2023-02-18T09:51:26;100123.56;;;12.31;73.30
19624;BME280;9959;49.798;9.928;2023-02-18T09:53:53;100117.97;;;12.26;72.50
19624;BME280;9959;49.798;9.928;2023-02-18T09:56:31;100117.97;;;12.26;73.03
19624;BME280;9959;49.798;9.928;2023-02-18T09:59:03;100114.78;;;12.56;69.98
19624;BME280;9959;49.798;9.928;2023-02-18T10:01:34;100121.03;;;12.49;69.14
19624;BME280;9959;49.798;9.928;2023-02-18T10:06:48;100118.56;;;12.41;68.61
19624;BME280;9959;49.798;9.928;2023-02-18T10:09:38;100113.16;;;12.41;68.27
19624;BME280;9959;49.798;9.928;2023-02-18T10:14:55;100116.28;;;12.38;68.14
19624;BME280;9959;49.798;9.928;2023-02-18T10:17:25;100091.31;;;12.43;67.49
19624;BME280;9959;49.798;9.928;2023-02-18T10:19:54;100096.50;;;12.51;67.21
19624;BME280;9959;49.798;9.928;2023-02-18T10:22:24;100088.22;;;12.39;66.75
19624;BME280;9959;49.798;9.928;2023-02-18T10:24:59;100087.78;;;12.42;67.47
19624;BME280;9959;49.798;9.928;2023-02-18T10:27:29;100092.56;;;12.40;67.36
19624;BME280;9959;49.798;9.928;2023-02-18T10:30:09;100086.19;;;12.28;67.89
19624;BME280;9959;49.798;9.928;2023-02-18T10:32:44;100094.66;;;12.38;67.16
19624;BME280;9959;49.798;9.928;2023-02-18T10:40:53;100100.31;;;12.24;68.06
19624;BME280;9959;49.798;9.928;2023-02-18T10:53:44;100100.13;;;12.18;69.53
19624;BME280;9959;49.798;9.928;2023-02-18T10:58:46;100084.13;;;12.04;69.79
19624;BME280;9959;49.798;9.928;2023-02-18T11:01:15;100084.94;;;12.24;69.54
19624;BME280;9959;49.798;9.928;2023-02-18T11:04:04;100088.28;;;12.06;69.53
19624;BME280;9959;49.798;9.928;2023-02-18T11:06:41;100086.19;;;12.28;69.21
19624;BME280;9959;49.798;9.928;2023-02-18T11:11:42;100083.84;;;12.32;69.01
19624;BME280;9959;49.798;9.928;2023-02-18T11:14:15;100083.19;;;12.49;68.00
19624;BME280;9959;49.798;9.928;2023-02-18T11:16:45;100073.44;;;12.42;67.76
19624;BME280;9959;49.798;9.928;2023-02-18T11:21:42;100069.31;;;12.33;67.72
19624;BME280;9959;49.798;9.928;2023-02-18T11:24:20;100062.03;;;12.40;67.07
19624;BME280;9959;49.798;9.928;2023-02-18T11:26:43;100065.97;;;12.37;66.15
19624;BME280;9959;49.798;9.928;2023-02-18T11:31:47;100038.72;;;12.45;64.92
19624;BME280;9959;49.798;9.928;2023-02-18T11:34:28;100043.00;;;12.60;64.05
19624;BME280;9959;49.798;9.928;2023-02-18T11:37:16;100050.34;;;12.52;63.66
19624;BME280;9959;49.798;9.928;2023-02-18T11:39:48;100051.78;;;12.55;63.94
19624;BME280;9959;49.798;9.928;2023-02-18T11:44:50;100027.03;;;12.58;63.17
19624;BME280;9959;49.798;9.928;2023-02-18T11:47:21;100049.03;;;12.62;62.75
19624;BME280;9959;49.798;9.928;2023-02-18T11:52:45;100021.16;;;12.99;61.76
19624;BME280;9959;49.798;9.928;2023-02-18T12:00:23;100015.06;;;13.10;62.35
19624;BME280;9959;49.798;9.928;2023-02-18T12:02:55;100011.56;;;12.72;63.40
19624;BME280;9959;49.798;9.928;2023-02-18T12:05:24;100018.16;;;12.82;62.12
19624;BME280;9959;49.798;9.928;2023-02-18T12:08:04;100051.13;;;12.60;63.38
19624;BME280;9959;49.798;9.928;2023-02-18T12:10:36;100042.44;;;12.58;62.68
19624;BME280;9959;49.798;9.928;2023-02-18T12:16:18;100028.84;;;12.26;64.46
19624;BME280;9959;49.798;9.928;2023-02-18T12:27:00;100013.97;;;12.86;61.29
19624;BME280;9959;49.798;9.928;2023-02-18T12:35:00;99982.06;;;12.64;62.34
19624;BME280;9959;49.798;9.928;2023-02-18T12:37:48;99988.81;;;12.54;61.81
19624;BME280;9959;49.798;9.928;2023-02-18T12:48:48;100003.97;;;12.87;58.66
19624;BME280;9959;49.798;9.928;2023-02-18T13:04:57;99976.06;;;12.93;58.72
19624;BME280;9959;49.798;9.928;2023-02-18T13:13:15;99991.16;;;13.07;58.64
19624;BME280;9959;49.798;9.928;2023-02-18T13:16:03;99984.97;;;13.00;59.15
19624;BME280;9959;49.798;9.928;2023-02-18T13:18:38;99984.34;;;12.98;59.24
19624;BME280;9959;49.798;9.928;2023-02-18T13:21:08;99985.84;;;12.94;59.62
19624;BME280;9959;49.798;9.928;2023-02-18T13:26:23;99983.84;;;12.83;60.42
19624;BME280;9959;49.798;9.928;2023-02-18T13:31:55;99974.09;;;12.82;60.72
19624;BME280;9959;49.798;9.928;2023-02-18T13:34:32;99982.06;;;12.64;60.94
19624;BME280;9959;49.798;9.928;2023-02-18T13:37:07;99990.47;;;12.56;61.31
19624;BME280;9959;49.798;9.928;2023-02-18T13:39:38;99998.50;;;12.62;61.38
19624;BME280;9959;49.798;9.928;2023-02-18T13:47:45;99989.72;;;12.35;62.27
19624;BME280;9959;49.798;9.928;2023-02-18T13:52:43;99982.44;;;12.36;62.35
19624;BME280;9959;49.798;9.928;2023-02-18T13:57:46;99982.16;;;12.50;62.78
19624;BME280;9959;49.798;9.928;2023-02-18T14:00:24;99986.56;;;12.45;62.80
19624;BME280;9959;49.798;9.928;2023-02-18T14:03:00;100006.28;;;12.52;63.57
19624;BME280;9959;49.798;9.928;2023-02-18T14:05:38;99995.53;;;12.32;65.11
19624;BME280;9959;49.798;9.928;2023-02-18T14:10:41;99981.81;;;12.34;66.19
19624;BME280;9959;49.798;9.928;2023-02-18T14:15:56;99986.13;;;11.97;68.81
19624;BME280;9959;49.798;9.928;2023-02-18T14:18:59;99980.84;;;12.22;68.00
19624;BME280;9959;49.798;9.928;2023-02-18T14:21:42;99988.34;;;12.13;67.16
19624;BME280;9959;49.798;9.928;2023-02-18T14:24:10;99996.88;;;12.10;67.39
19624;BME280;9959;49.798;9.928;2023-02-18T14:26:48;99997.19;;;12.33;66.45
19624;BME280;9959;49.798;9.928;2023-02-18T14:31:47;99991.13;;;12.00;68.31
19624;BME280;9959;49.798;9.928;2023-02-18T14:50:36;99979.00;;;12.09;70.14
19624;BME280;9959;49.798;9.928;2023-02-18T14:53:06;99997.50;;;12.05;70.57
19624;BME280;9959;49.798;9.928;2023-02-18T14:58:40;99991.19;;;12.31;69.42
19624;BME280;9959;49.798;9.928;2023-02-18T15:03:42;99995.22;;;12.09;70.66
19624;BME280;9959;49.798;9.928;2023-02-18T15:08:43;99996.09;;;12.03;71.21
19624;BME280;9959;49.798;9.928;2023-02-18T15:11:10;100001.53;;;11.76;72.21
19624;BME280;9959;49.798;9.928;2023-02-18T15:13:41;100003.19;;;11.77;72.67
19624;BME280;9959;49.798;9.928;2023-02-18T15:18:44;100005.69;;;11.66;73.67
19624;BME280;9959;49.798;9.928;2023-02-18T15:23:42;100014.63;;;11.66;73.14
19624;BME280;9959;49.798;9.928;2023-02-18T15:29:03;100013.19;;;11.44;73.30
19624;BME280;9959;49.798;9.928;2023-02-18T15:31:36;100004.88;;;11.32;74.12
19624;BME280;9959;49.798;9.928;2023-02-18T15:36:50;100023.97;;;11.24;75.56
19624;BME280;9959;49.798;9.928;2023-02-18T15:39:18;100020.66;;;11.15;76.49
19624;BME280;9959;49.798;9.928;2023-02-18T15:41:46;100023.75;;;11.06;77.09
19624;BME280;9959;49.798;9.928;2023-02-18T15:46:43;100014.00;;;11.05;77.81
19624;BME280;9959;49.798;9.928;2023-02-18T15:49:13;100011.72;;;11.02;77.94
19624;BME280;9959;49.798;9.928;2023-02-18T15:51:42;100013.16;;;10.91;78.89
19624;BME280;9959;49.798;9.928;2023-02-18T15:56:45;100011.09;;;10.93;79.56
19624;BME280;9959;49.798;9.928;2023-02-18T16:01:48;100012.31;;;10.84;79.79
19624;BME280;9959;49.798;9.928;2023-02-18T16:04:15;100023.47;;;10.74;81.40
19624;BME280;9959;49.798;9.928;2023-02-18T16:06:45;100021.78;;;10.67;81.51
19624;BME280;9959;49.798;9.928;2023-02-18T16:11:48;100018.28;;;10.60;81.65
19624;BME280;9959;49.798;9.928;2023-02-18T16:14:26;100015.16;;;10.56;81.92
19624;BME280;9959;49.798;9.928;2023-02-18T16:24:58;100030.44;;;10.49;82.43
19624;BME280;9959;49.798;9.928;2023-02-18T16:27:34;100032.09;;;10.43;82.99
19624;BME280;9959;49.798;9.928;2023-02-18T16:30:13;100040.78;;;10.45;82.96
19624;BME280;9959;49.798;9.928;2023-02-18T16:32:41;100025.47;;;10.39;83.73
19624;BME280;9959;49.798;9.928;2023-02-18T16:35:08;100028.31;;;10.31;84.54
19624;BME280;9959;49.798;9.928;2023-02-18T16:37:35;100030.63;;;10.34;84.99
19624;BME280;9959;49.798;9.928;2023-02-18T16:42:43;100034.53;;;10.32;84.77
19624;BME280;9959;49.798;9.928;2023-02-18T16:45:13;100046.13;;;10.32;85.17
19624;BME280;9959;49.798;9.928;2023-02-18T16:47:40;100039.88;;;10.25;85.84
19624;BME280;9959;49.798;9.928;2023-02-18T16:52:43;100039.44;;;10.22;86.31
19624;BME280;9959;49.798;9.928;2023-02-18T16:57:44;100041.88;;;10.10;87.88
19624;BME280;9959;49.798;9.928;2023-02-18T17:00:15;100045.53;;;10.02;89.57
19624;BME280;9959;49.798;9.928;2023-02-18T17:02:46;100043.25;;;9.99;89.78
19624;BME280;9959;49.798;9.928;2023-02-18T17:07:52;100046.66;;;9.87;90.70